Time;durP1;ratioP1;P1;durP2;ratioP2;P2;SDS_P1;SDS_P2;PMS_P1;PMS_P2;Temp;Humidity;BMP_temperature;BMP_pressure;BME280_temperature;BME280_humidity;BME280_pressure;Samples;Min_cycle;Max_cycle;Signal;HPM_P1;HPM_P2
2023/11/05 00:00:56;;;;;;;;;;;;;;;6.03;57.73;91759.09;5042691;28;20456;-64
2023/11/05 00:03:21;;;;;;;;;;;;;;;6.61;56.49;91764.03;5041268;28;19945;-64
2023/11/05 00:05:47;;;;;;;;;;;;;;;6.95;55.57;91757.75;5039740;28;19958;-65
2023/11/05 00:08:12;;;;;;;;;;;;;;;6.53;55.57;91761.03;5045808;28;20358;-64
2023/11/05 00:10:38;;;;;;;;;;;;;;;6.21;56.79;91747.44;5050555;28;19932;-65
2023/11/05 00:13:03;;;;;;;;;;;;;;;4.18;63.70;91735.53;5051654;28;19942;-64
2023/11/05 00:15:28;;;;;;;;;;;;;;;5.44;60.22;91737.44;5040332;28;20386;-64
2023/11/05 00:17:54;;;;;;;;;;;;;;;6.27;57.82;91723.72;5044744;28;19952;-64
2023/11/05 00:20:19;;;;;;;;;;;;;;;6.77;56.06;91733.25;5038754;28;19929;-65
2023/11/05 00:22:44;;;;;;;;;;;;;;;6.82;55.63;91727.22;5038184;28;20623;-64
2023/11/05 00:25:09;;;;;;;;;;;;;;;6.84;55.50;91719.03;5039204;28;19921;-63
2023/11/05 00:27:36;;;;;;;;;;;;;;;6.80;57.04;91715.31;5038147;28;19943;-64
2023/11/05 00:30:02;;;;;;;;;;;;;;;6.36;56.25;91714.31;5037549;28;20353;-65
2023/11/05 00:32:27;;;;;;;;;;;;;;;6.85;55.31;91710.88;5040850;28;20362;-64
2023/11/05 00:34:52;;;;;;;;;;;;;;;6.60;55.31;91706.13;5038844;28;19924;-65
2023/11/05 00:37:17;;;;;;;;;;;;;;;7.15;55.10;91703.44;5038727;28;20220;-63
2023/11/05 00:39:43;;;;;;;;;;;;;;;7.00;55.35;91699.59;5036725;28;20471;-64
2023/11/05 00:42:08;;;;;;;;;;;;;;;7.17;54.63;91703.97;5039968;28;20366;-65
2023/11/05 00:44:33;;;;;;;;;;;;;;;7.19;54.37;91704.53;5041197;28;20452;-64
2023/11/05 00:46:58;;;;;;;;;;;;;;;7.23;54.52;91700.31;5039506;28;19925;-64
2023/11/05 00:49:24;;;;;;;;;;;;;;;7.32;54.32;91697.19;5042648;28;20035;-65
2023/11/05 00:51:49;;;;;;;;;;;;;;;7.38;54.57;91690.91;5041227;28;19978;-65
2023/11/05 00:54:14;;;;;;;;;;;;;;;7.36;54.34;91685.06;5043312;28;19946;-64
2023/11/05 00:56:39;;;;;;;;;;;;;;;7.28;54.13;91676.53;5038545;28;19921;-64
2023/11/05 00:59:05;;;;;;;;;;;;;;;6.82;55.81;91676.19;5044400;28;20004;-65
2023/11/05 01:01:30;;;;;;;;;;;;;;;7.09;54.92;91673.50;5042494;28;19935;-65
2023/11/05 01:03:55;;;;;;;;;;;;;;;6.46;55.80;91693.25;5049314;28;19920;-64
2023/11/05 01:06:21;;;;;;;;;;;;;;;6.65;56.05;91677.09;5045710;28;19964;-63
2023/11/05 01:08:46;;;;;;;;;;;;;;;6.79;55.83;91677.47;5039085;28;19955;-65
2023/11/05 01:11:12;;;;;;;;;;;;;;;6.10;59.00;91664.66;5038842;28;19921;-62
2023/11/05 01:13:37;;;;;;;;;;;;;;;5.57;60.10;91664.25;5039491;28;20546;-65
2023/11/05 01:16:02;;;;;;;;;;;;;;;5.87;59.61;91673.59;5034983;28;19929;-63
2023/11/05 01:18:28;;;;;;;;;;;;;;;6.57;57.18;91659.88;5036273;28;19932;-64
2023/11/05 01:20:53;;;;;;;;;;;;;;;6.42;57.23;91652.53;5041999;28;19916;-64
2023/11/05 01:23:18;;;;;;;;;;;;;;;6.98;56.17;91648.84;5043018;28;19983;-63
2023/11/05 01:25:43;;;;;;;;;;;;;;;5.43;58.92;91661.97;5040311;28;19920;-65
2023/11/05 01:28:09;;;;;;;;;;;;;;;5.46;60.43;91644.84;5041464;28;19921;-63
2023/11/05 01:30:34;;;;;;;;;;;;;;;6.60;58.03;91654.06;5041804;28;19924;-64
2023/11/05 01:33:00;;;;;;;;;;;;;;;7.04;55.92;91648.88;5049476;28;20062;-62
2023/11/05 01:35:25;;;;;;;;;;;;;;;6.81;56.17;91648.16;5044747;28;20046;-65
2023/11/05 01:37:50;;;;;;;;;;;;;;;6.60;57.55;91637.41;5046535;28;19943;-61
2023/11/05 01:40:15;;;;;;;;;;;;;;;6.67;57.40;91616.88;5044630;28;19936;-63
2023/11/05 01:42:41;;;;;;;;;;;;;;;6.57;58.45;91617.59;5048196;28;19923;-64
2023/11/05 01:45:06;;;;;;;;;;;;;;;6.94;56.86;91625.78;5042964;28;20432;-63
2023/11/05 01:47:32;;;;;;;;;;;;;;;7.01;56.53;91621.84;5034997;28;19958;-64
2023/11/05 01:49:57;;;;;;;;;;;;;;;7.06;56.65;91615.81;5042077;28;19931;-62
2023/11/05 01:52:22;;;;;;;;;;;;;;;7.24;56.12;91617.25;5041423;28;19966;-63
2023/11/05 01:54:47;;;;;;;;;;;;;;;6.08;59.58;91623.66;5039851;28;19923;-64
2023/11/05 01:57:13;;;;;;;;;;;;;;;5.55;61.65;91613.59;5044183;28;19933;-63
2023/11/05 01:59:38;;;;;;;;;;;;;;;6.15;59.29;91600.50;5043773;28;20441;-65
2023/11/05 02:02:03;;;;;;;;;;;;;;;6.09;59.45;91591.72;5045532;28;19981;-64
2023/11/05 02:04:29;;;;;;;;;;;;;;;6.59;58.13;91590.88;5039893;28;19967;-61
2023/11/05 02:06:54;;;;;;;;;;;;;;;6.31;58.21;91590.09;5045557;28;19956;-63
2023/11/05 02:09:19;;;;;;;;;;;;;;;5.87;60.62;91583.84;5045075;28;19971;-64
2023/11/05 02:11:44;;;;;;;;;;;;;;;6.54;58.28;91575.78;5043490;28;19925;-62
2023/11/05 02:14:13;;;;;;;;;;;;;;;6.58;58.32;91576.06;5045356;28;20001;-62
2023/11/05 02:16:39;;;;;;;;;;;;;;;6.60;58.13;91547.56;5040396;28;20527;-62
2023/11/05 02:19:04;;;;;;;;;;;;;;;6.67;57.64;91542.88;5042711;28;19932;-61
2023/11/05 02:21:34;;;;;;;;;;;;;;;6.63;57.73;91544.38;5048676;28;20655;-64
2023/11/05 02:23:59;;;;;;;;;;;;;;;6.72;57.93;91529.66;5045985;28;19916;-61
2023/11/05 02:26:24;;;;;;;;;;;;;;;5.98;59.44;91548.59;5049517;28;19954;-64
2023/11/05 02:28:49;;;;;;;;;;;;;;;6.44;58.13;91539.50;5047066;28;19973;-63
2023/11/05 02:31:14;;;;;;;;;;;;;;;5.99;60.31;91529.06;5053848;28;20058;-64
2023/11/05 02:33:41;;;;;;;;;;;;;;;6.61;58.61;91530.66;5042528;28;20187;-63
2023/11/05 02:36:06;;;;;;;;;;;;;;;6.49;58.64;91518.41;5053306;28;19960;-63
2023/11/05 02:38:32;;;;;;;;;;;;;;;6.66;57.71;91516.69;5046723;28;20021;-63
2023/11/05 02:40:57;;;;;;;;;;;;;;;5.71;60.52;91517.72;5050793;28;19972;-62
2023/11/05 02:43:22;;;;;;;;;;;;;;;4.92;61.96;91528.38;5048742;28;20449;-63
2023/11/05 02:45:47;;;;;;;;;;;;;;;5.96;60.92;91521.63;5047483;28;20759;-65
2023/11/05 02:48:12;;;;;;;;;;;;;;;6.38;58.76;91519.34;5044021;28;19928;-62
2023/11/05 02:50:38;;;;;;;;;;;;;;;6.33;59.45;91519.31;5049175;28;19959;-62
2023/11/05 02:53:03;;;;;;;;;;;;;;;6.40;58.79;91519.91;5046996;28;19947;-63
2023/11/05 02:55:28;;;;;;;;;;;;;;;6.42;59.06;91517.03;5044414;28;19938;-62
2023/11/05 02:57:53;;;;;;;;;;;;;;;6.17;59.51;91523.66;5043131;28;20021;-63
2023/11/05 03:00:19;;;;;;;;;;;;;;;6.36;59.14;91510.91;5044883;28;19971;-62
2023/11/05 03:02:45;;;;;;;;;;;;;;;5.89;60.31;91513.16;5044012;28;19956;-62
2023/11/05 03:05:10;;;;;;;;;;;;;;;6.11;60.45;91502.50;5047570;28;20261;-62
2023/11/05 03:07:35;;;;;;;;;;;;;;;5.72;61.49;91492.91;5044143;28;19951;-64
2023/11/05 03:10:01;;;;;;;;;;;;;;;5.53;62.22;91515.41;5045176;28;20499;-63
2023/11/05 03:12:26;;;;;;;;;;;;;;;5.69;61.75;91521.66;5047851;28;20021;-63
2023/11/05 03:14:51;;;;;;;;;;;;;;;5.79;61.63;91513.03;5042003;28;19959;-63
2023/11/05 03:17:17;;;;;;;;;;;;;;;5.52;62.73;91522.53;5049089;28;19932;-62
2023/11/05 03:19:42;;;;;;;;;;;;;;;5.36;62.29;91521.56;5049064;28;20210;-61
2023/11/05 03:22:07;;;;;;;;;;;;;;;4.16;67.76;91522.56;5040237;28;19959;-64
2023/11/05 03:24:32;;;;;;;;;;;;;;;4.93;64.58;91514.16;5053163;28;20031;-63
2023/11/05 03:26:58;;;;;;;;;;;;;;;5.20;64.39;91516.09;5052900;28;19962;-63
2023/11/05 03:29:23;;;;;;;;;;;;;;;5.78;61.91;91511.44;5047628;28;20443;-65
2023/11/05 03:31:51;;;;;;;;;;;;;;;5.93;61.49;91519.50;5043438;28;19937;-64
2023/11/05 03:34:18;;;;;;;;;;;;;;;4.76;65.02;91510.78;5046080;28;19964;-64
2023/11/05 03:36:43;;;;;;;;;;;;;;;5.45;62.92;91521.94;5048903;28;20597;-63
2023/11/05 03:39:08;;;;;;;;;;;;;;;5.10;63.66;91508.06;5048578;28;19966;-64
2023/11/05 03:41:33;;;;;;;;;;;;;;;3.94;67.94;91517.16;5048127;28;20722;-65
2023/11/05 03:43:59;;;;;;;;;;;;;;;3.94;67.57;91525.06;5042546;28;19921;-64
2023/11/05 03:46:24;;;;;;;;;;;;;;;4.89;65.38;91510.41;5044931;28;19948;-64
2023/11/05 03:48:49;;;;;;;;;;;;;;;3.27;71.60;91507.03;5042394;28;19936;-64
2023/11/05 03:51:15;;;;;;;;;;;;;;;4.45;67.75;91487.41;5041316;28;19917;-63
2023/11/05 03:53:40;;;;;;;;;;;;;;;3.02;71.45;91512.59;5041770;28;19966;-63
2023/11/05 03:56:05;;;;;;;;;;;;;;;4.73;66.30;91511.25;5042794;28;19978;-65
2023/11/05 03:58:31;;;;;;;;;;;;;;;5.45;63.14;91501.59;5044512;28;20042;-64
2023/11/05 04:00:56;;;;;;;;;;;;;;;5.76;62.13;91510.88;5042929;28;19971;-64
2023/11/05 04:03:21;;;;;;;;;;;;;;;5.94;61.42;91515.81;5043497;28;19916;-65
2023/11/05 04:05:46;;;;;;;;;;;;;;;5.69;61.95;91524.28;5040052;28;19952;-64
2023/11/05 04:08:12;;;;;;;;;;;;;;;5.31;63.02;91508.31;5046367;28;19920;-64
2023/11/05 04:10:37;;;;;;;;;;;;;;;4.95;64.05;91493.63;5041332;28;19953;-64
2023/11/05 04:13:02;;;;;;;;;;;;;;;4.52;66.39;91493.31;5047728;28;19938;-65
2023/11/05 04:15:27;;;;;;;;;;;;;;;5.34;63.37;91502.56;5043203;28;20165;-64
2023/11/05 04:17:53;;;;;;;;;;;;;;;5.16;64.15;91498.38;5046692;28;20630;-63
2023/11/05 04:20:18;;;;;;;;;;;;;;;3.03;72.04;91508.94;5045066;28;19983;-64
2023/11/05 04:22:45;;;;;;;;;;;;;;;4.54;65.92;91498.34;5047188;28;20050;-64
2023/11/05 04:25:11;;;;;;;;;;;;;;;4.76;64.89;91492.31;5049002;28;19929;-65
2023/11/05 04:27:36;;;;;;;;;;;;;;;3.87;68.01;91490.22;5047160;28;20357;-63
2023/11/05 04:30:01;;;;;;;;;;;;;;;4.18;68.02;91499.41;5046309;28;20649;-64
2023/11/05 04:32:26;;;;;;;;;;;;;;;5.67;62.71;91484.94;5050606;28;20625;-65
2023/11/05 04:34:51;;;;;;;;;;;;;;;5.90;62.10;91488.34;5044881;28;19925;-64
2023/11/05 04:37:17;;;;;;;;;;;;;;;5.68;61.66;91491.03;5042642;28;19931;-64
2023/11/05 04:39:43;;;;;;;;;;;;;;;5.43;63.05;91485.25;5041921;28;19978;-64
2023/11/05 04:42:09;;;;;;;;;;;;;;;5.61;62.54;91491.22;5042441;28;20094;-64
2023/11/05 04:44:36;;;;;;;;;;;;;;;5.69;62.26;91490.78;5041746;28;20561;-65
2023/11/05 04:47:01;;;;;;;;;;;;;;;6.25;60.17;91479.13;5041736;28;19921;-64
2023/11/05 04:49:27;;;;;;;;;;;;;;;5.77;61.95;91475.53;5040710;28;19998;-64
2023/11/05 04:51:52;;;;;;;;;;;;;;;5.84;61.68;91476.13;5039554;28;19992;-64
2023/11/05 04:54:18;;;;;;;;;;;;;;;5.44;61.64;91489.47;5041528;28;20379;-63
2023/11/05 04:56:43;;;;;;;;;;;;;;;5.86;61.14;91484.59;5042373;28;19939;-64
2023/11/05 04:59:08;;;;;;;;;;;;;;;5.53;62.34;91478.47;5042138;28;20659;-64
2023/11/05 05:01:33;;;;;;;;;;;;;;;6.21;60.42;91480.66;5045206;28;19921;-63
2023/11/05 05:03:59;;;;;;;;;;;;;;;5.76;61.12;91482.66;5044401;28;19999;-64
2023/11/05 05:06:25;;;;;;;;;;;;;;;5.89;61.47;91476.19;5045144;28;20607;-63
2023/11/05 05:08:50;;;;;;;;;;;;;;;5.87;61.25;91483.53;5045549;28;19924;-63
2023/11/05 05:11:15;;;;;;;;;;;;;;;5.91;59.87;91482.00;5041332;28;19944;-65
2023/11/05 05:13:42;;;;;;;;;;;;;;;5.89;60.83;91476.19;5042530;28;20417;-63
2023/11/05 05:16:11;;;;;;;;;;;;;;;6.72;58.62;91465.44;5040040;28;19955;-65
2023/11/05 05:18:37;;;;;;;;;;;;;;;6.25;59.73;91468.53;5043738;28;20020;-65
2023/11/05 05:21:02;;;;;;;;;;;;;;;6.69;58.16;91479.97;5043184;28;20004;-64
2023/11/05 05:23:27;;;;;;;;;;;;;;;6.32;59.28;91472.84;5039346;28;19917;-65
2023/11/05 05:25:52;;;;;;;;;;;;;;;6.12;60.08;91475.03;5045363;28;19925;-63
2023/11/05 05:28:18;;;;;;;;;;;;;;;5.52;62.01;91479.53;5040042;28;19917;-63
2023/11/05 05:30:43;;;;;;;;;;;;;;;6.55;59.08;91471.69;5040168;28;19924;-65
2023/11/05 05:33:08;;;;;;;;;;;;;;;6.31;58.92;91468.56;5040252;28;19955;-65
2023/11/05 05:35:34;;;;;;;;;;;;;;;6.69;58.40;91476.50;5041997;28;20370;-64
2023/11/05 05:38:00;;;;;;;;;;;;;;;7.09;56.54;91471.69;5040192;28;19925;-65
2023/11/05 05:40:26;;;;;;;;;;;;;;;7.10;57.29;91466.16;5042546;28;19928;-64
2023/11/05 05:42:51;;;;;;;;;;;;;;;7.21;56.08;91487.34;5039821;28;20425;-65
2023/11/05 05:45:16;;;;;;;;;;;;;;;4.33;63.69;91483.03;5043523;28;19985;-65
2023/11/05 05:47:42;;;;;;;;;;;;;;;6.12;60.15;91484.81;5039990;28;20097;-65
2023/11/05 05:50:07;;;;;;;;;;;;;;;5.68;61.51;91475.97;5040320;28;20019;-65
2023/11/05 05:52:33;;;;;;;;;;;;;;;5.79;60.85;91505.13;5038542;28;19941;-66
2023/11/05 05:54:59;;;;;;;;;;;;;;;4.80;63.48;91488.94;5041759;28;19920;-65
2023/11/05 05:57:24;;;;;;;;;;;;;;;5.34;61.90;91494.66;5046207;28;19957;-65
2023/11/05 05:59:51;;;;;;;;;;;;;;;5.60;61.78;91494.91;5045840;28;20482;-66
2023/11/05 06:02:17;;;;;;;;;;;;;;;5.94;60.76;91499.97;5047627;28;20007;-65
2023/11/05 06:04:42;;;;;;;;;;;;;;;5.79;60.96;91508.56;5044533;28;20057;-65
2023/11/05 06:07:08;;;;;;;;;;;;;;;6.37;59.74;91496.63;5047543;28;19987;-65
2023/11/05 06:09:33;;;;;;;;;;;;;;;6.19;60.50;91505.75;5044404;28;20022;-65
2023/11/05 06:11:59;;;;;;;;;;;;;;;6.08;59.46;91507.47;5051002;28;20339;-65
2023/11/05 06:14:24;;;;;;;;;;;;;;;5.96;60.43;91502.38;5046108;28;19920;-65
2023/11/05 06:16:49;;;;;;;;;;;;;;;6.17;59.91;91503.34;5040409;28;19939;-65
2023/11/05 06:19:15;;;;;;;;;;;;;;;5.86;60.57;91498.56;5048509;28;20075;-66
2023/11/05 06:21:43;;;;;;;;;;;;;;;6.02;59.76;91501.34;5041126;28;20006;-65
2023/11/05 06:24:09;;;;;;;;;;;;;;;5.70;60.76;91510.84;5049017;28;20651;-65
2023/11/05 06:26:34;;;;;;;;;;;;;;;6.20;59.46;91509.97;5042608;28;19959;-66
2023/11/05 06:28:59;;;;;;;;;;;;;;;6.16;59.82;91511.53;5043257;28;19951;-66
2023/11/05 06:31:25;;;;;;;;;;;;;;;6.18;58.90;91499.66;5048703;28;19992;-65
2023/11/05 06:33:50;;;;;;;;;;;;;;;6.59;57.79;91514.25;5050406;28;19925;-66
2023/11/05 06:36:15;;;;;;;;;;;;;;;6.30;59.14;91504.78;5043757;28;19955;-65
2023/11/05 06:38:41;;;;;;;;;;;;;;;5.52;61.16;91527.00;5045134;28;20156;-66
2023/11/05 06:41:06;;;;;;;;;;;;;;;5.11;63.39;91520.22;5044633;28;19963;-65
2023/11/05 06:43:31;;;;;;;;;;;;;;;5.58;61.91;91532.09;5045139;28;20384;-66
2023/11/05 06:45:56;;;;;;;;;;;;;;;3.86;66.35;91538.63;5042354;28;19928;-66
2023/11/05 06:48:23;;;;;;;;;;;;;;;5.34;63.21;91542.13;5044256;28;19917;-65
2023/11/05 06:50:49;;;;;;;;;;;;;;;6.28;59.87;91545.69;5043654;28;20031;-65
2023/11/05 06:53:14;;;;;;;;;;;;;;;6.20;59.08;91549.59;5041767;28;20016;-63
2023/11/05 06:55:40;;;;;;;;;;;;;;;5.50;62.30;91548.34;5045185;28;19924;-65
2023/11/05 06:58:05;;;;;;;;;;;;;;;5.44;61.79;91544.09;5044713;28;19968;-63
2023/11/05 07:00:30;;;;;;;;;;;;;;;5.09;63.03;91548.66;5047645;28;19959;-63
2023/11/05 07:02:55;;;;;;;;;;;;;;;6.11;60.09;91552.69;5045012;28;20008;-64
2023/11/05 07:05:21;;;;;;;;;;;;;;;5.57;61.28;91554.25;5045864;28;19943;-63
2023/11/05 07:07:46;;;;;;;;;;;;;;;5.67;60.68;91558.03;5045606;28;19981;-64
2023/11/05 07:10:11;;;;;;;;;;;;;;;5.40;61.98;91548.22;5047463;28;19924;-63
2023/11/05 07:12:41;;;;;;;;;;;;;;;6.36;59.58;91553.16;5046820;28;19952;-63
2023/11/05 07:15:06;;;;;;;;;;;;;;;5.48;61.44;91561.00;5041974;28;20505;-62
2023/11/05 07:17:32;;;;;;;;;;;;;;;5.28;62.38;91582.66;5045088;28;19960;-63
2023/11/05 07:19:57;;;;;;;;;;;;;;;5.98;62.01;91553.88;5051320;28;19958;-64
2023/11/05 07:22:22;;;;;;;;;;;;;;;6.08;61.40;91555.00;5046719;28;19951;-62
2023/11/05 07:24:48;;;;;;;;;;;;;;;5.98;61.19;91564.44;5048177;28;19921;-63
2023/11/05 07:27:13;;;;;;;;;;;;;;;6.08;61.41;91560.28;5041501;28;20586;-64
2023/11/05 07:29:39;;;;;;;;;;;;;;;6.24;60.88;91551.47;5041451;28;19924;-62
2023/11/05 07:32:04;;;;;;;;;;;;;;;6.32;59.51;91557.34;5041896;28;19921;-64
2023/11/05 07:34:29;;;;;;;;;;;;;;;4.11;66.48;91561.16;5042434;28;19956;-62
2023/11/05 07:36:57;;;;;;;;;;;;;;;5.83;62.06;91567.72;5042850;28;19913;-61
2023/11/05 07:39:22;;;;;;;;;;;;;;;5.78;61.87;91565.00;5044277;28;19929;-62
2023/11/05 07:41:47;;;;;;;;;;;;;;;3.14;70.79;91563.28;5041141;28;20584;-65
2023/11/05 07:44:12;;;;;;;;;;;;;;;4.16;67.40;91559.41;5044969;28;20536;-63
2023/11/05 07:46:37;;;;;;;;;;;;;;;4.78;65.21;91562.19;5044836;28;19924;-63
2023/11/05 07:49:05;;;;;;;;;;;;;;;5.27;63.46;91570.50;5045637;28;19944;-63
2023/11/05 07:51:30;;;;;;;;;;;;;;;5.11;65.50;91566.88;5043507;28;19934;-62
2023/11/05 07:53:56;;;;;;;;;;;;;;;4.75;65.40;91583.75;5040001;28;19957;-61
2023/11/05 07:56:21;;;;;;;;;;;;;;;5.27;64.11;91571.28;5043963;28;19955;-64
2023/11/05 07:58:48;;;;;;;;;;;;;;;5.59;64.87;91585.66;5041603;28;19959;-64
2023/11/05 08:01:13;;;;;;;;;;;;;;;5.27;66.06;91567.88;5042266;28;19928;-64
2023/11/05 08:03:42;;;;;;;;;;;;;;;4.51;67.05;91597.09;5043393;28;19957;-65
2023/11/05 08:06:07;;;;;;;;;;;;;;;5.07;65.91;91575.25;5042390;28;19927;-66
2023/11/05 08:08:33;;;;;;;;;;;;;;;5.20;64.77;91586.50;5044906;28;19917;-65
2023/11/05 08:10:58;;;;;;;;;;;;;;;5.66;63.73;91582.84;5043039;28;19963;-65
2023/11/05 08:13:23;;;;;;;;;;;;;;;5.64;63.59;91583.06;5046560;28;20381;-65
2023/11/05 08:15:48;;;;;;;;;;;;;;;5.55;63.02;91597.75;5039194;28;19957;-65
2023/11/05 08:18:14;;;;;;;;;;;;;;;5.95;62.27;91599.25;5043324;28;20686;-65
2023/11/05 08:20:39;;;;;;;;;;;;;;;5.73;63.00;91594.81;5043582;28;20531;-65
2023/11/05 08:23:04;;;;;;;;;;;;;;;5.48;64.64;91604.00;5045853;28;20183;-65
2023/11/05 08:25:30;;;;;;;;;;;;;;;5.69;63.82;91598.19;5046064;28;20576;-65
2023/11/05 08:27:55;;;;;;;;;;;;;;;5.77;63.44;91615.41;5049216;28;20594;-66
2023/11/05 08:30:23;;;;;;;;;;;;;;;4.64;66.92;91621.50;5047505;28;20505;-65
2023/11/05 08:32:48;;;;;;;;;;;;;;;5.16;65.58;91624.94;5050437;28;19956;-66
2023/11/05 08:35:14;;;;;;;;;;;;;;;4.22;67.49;91627.94;5048249;28;19921;-65
2023/11/05 08:37:40;;;;;;;;;;;;;;;4.47;65.38;91643.38;5040045;28;19952;-65
2023/11/05 08:40:09;;;;;;;;;;;;;;;4.95;64.44;91643.06;5040456;28;19967;-66
2023/11/05 08:42:34;;;;;;;;;;;;;;;4.58;66.71;91644.34;5041271;28;20348;-65
2023/11/05 08:45:00;;;;;;;;;;;;;;;4.47;67.30;91653.91;5041287;28;19955;-66
2023/11/05 08:47:25;;;;;;;;;;;;;;;4.40;67.28;91648.00;5040245;28;19953;-65
2023/11/05 08:49:50;;;;;;;;;;;;;;;3.64;69.19;91666.34;5041427;28;19955;-65
2023/11/05 08:52:16;;;;;;;;;;;;;;;3.42;72.04;91666.13;5039478;28;20579;-65
2023/11/05 08:54:41;;;;;;;;;;;;;;;3.53;70.30;91678.50;5039770;28;19959;-65
2023/11/05 08:57:06;;;;;;;;;;;;;;;3.10;71.53;91695.41;5026888;28;19945;-65
2023/11/05 08:59:31;;;;;;;;;;;;;;;2.57;72.59;91693.38;5039876;28;19956;-65
2023/11/05 09:01:58;;;;;;;;;;;;;;;3.39;71.97;91682.34;5041622;28;20052;-65
2023/11/05 09:04:23;;;;;;;;;;;;;;;2.64;74.53;91698.53;5049801;28;20027;-65
2023/11/05 09:06:48;;;;;;;;;;;;;;;3.14;73.40;91701.81;5041350;28;20046;-65
2023/11/05 09:09:15;;;;;;;;;;;;;;;3.07;73.21;91716.88;5051137;28;19996;-65
2023/11/05 09:11:40;;;;;;;;;;;;;;;3.55;71.50;91713.25;5046625;28;19931;-65
2023/11/05 09:14:06;;;;;;;;;;;;;;;3.25;72.57;91737.00;5045815;28;20408;-61
2023/11/05 09:16:31;;;;;;;;;;;;;;;3.38;72.10;91728.91;5037197;28;20039;-62
2023/11/05 09:18:56;;;;;;;;;;;;;;;4.09;69.25;91731.69;5038777;28;19929;-61
2023/11/05 09:21:22;;;;;;;;;;;;;;;3.38;70.85;91742.06;5036456;28;19953;-63
2023/11/05 09:23:47;;;;;;;;;;;;;;;2.81;73.25;91772.25;5042927;28;19916;-64
2023/11/05 09:26:12;;;;;;;;;;;;;;;3.24;72.96;91756.44;5042886;28;19960;-64
2023/11/05 09:28:38;;;;;;;;;;;;;;;3.19;72.50;91766.84;5044949;28;20047;-64
2023/11/05 09:31:03;;;;;;;;;;;;;;;2.87;73.58;91784.50;5044695;28;20166;-63
2023/11/05 09:33:29;;;;;;;;;;;;;;;2.54;75.18;91775.25;5042841;28;19961;-63
2023/11/05 09:35:54;;;;;;;;;;;;;;;3.49;71.41;91785.19;5046359;28;19944;-61
2023/11/05 09:38:19;;;;;;;;;;;;;;;3.26;71.70;91793.81;5045933;28;19966;-64
2023/11/05 09:40:45;;;;;;;;;;;;;;;3.33;71.94;91793.72;5047628;28;20014;-63
2023/11/05 09:43:10;;;;;;;;;;;;;;;3.32;72.50;91792.91;5044055;28;20181;-61
2023/11/05 09:45:36;;;;;;;;;;;;;;;2.75;72.67;91833.53;5044481;28;19947;-62
2023/11/05 09:48:02;;;;;;;;;;;;;;;2.86;73.14;91805.72;5047571;28;19945;-62
2023/11/05 09:50:28;;;;;;;;;;;;;;;2.91;72.70;91814.56;5043684;28;20379;-64
2023/11/05 09:52:53;;;;;;;;;;;;;;;2.94;73.59;91818.56;5046695;28;19931;-62
2023/11/05 09:55:18;;;;;;;;;;;;;;;3.33;71.37;91822.66;5042168;28;19990;-63
2023/11/05 09:57:44;;;;;;;;;;;;;;;3.40;71.37;91829.38;5047860;28;19957;-64
2023/11/05 10:00:09;;;;;;;;;;;;;;;3.22;71.88;91824.19;5045366;28;19978;-63
2023/11/05 10:02:54;;;;;;;;;;;;;;;4.02;69.86;91827.38;5041461;28;20004;-63
2023/11/05 10:05:19;;;;;;;;;;;;;;;4.07;68.76;91839.84;5039680;28;19932;-64
2023/11/05 10:07:45;;;;;;;;;;;;;;;3.83;69.38;91836.41;5044491;28;19938;-63
2023/11/05 10:10:11;;;;;;;;;;;;;;;4.12;69.08;91839.16;5046705;28;20540;-61
2023/11/05 10:12:36;;;;;;;;;;;;;;;4.30;69.03;91836.41;5041497;28;20341;-62
2023/11/05 10:15:03;;;;;;;;;;;;;;;4.48;67.92;91839.06;5039510;28;19929;-64
2023/11/05 10:17:28;;;;;;;;;;;;;;;4.53;67.77;91849.75;5047441;28;19931;-64
2023/11/05 10:19:53;;;;;;;;;;;;;;;4.47;69.14;91850.66;5042031;28;20558;-64
2023/11/05 10:22:19;;;;;;;;;;;;;;;3.89;70.30;91854.75;5041170;28;19967;-65
2023/11/05 10:24:45;;;;;;;;;;;;;;;4.03;70.79;91868.47;5042372;28;19935;-66
2023/11/05 10:27:10;;;;;;;;;;;;;;;3.46;72.85;91868.97;5043151;28;19949;-66
2023/11/05 10:29:36;;;;;;;;;;;;;;;3.60;72.56;91874.84;5041492;28;19959;-65
2023/11/05 10:32:01;;;;;;;;;;;;;;;4.11;71.32;91879.69;5045277;28;20024;-65
2023/11/05 10:34:26;;;;;;;;;;;;;;;3.88;69.88;91897.06;5042173;28;19932;-65
2023/11/05 10:36:51;;;;;;;;;;;;;;;4.11;70.66;91880.47;5044031;28;19939;-65
2023/11/05 10:39:17;;;;;;;;;;;;;;;4.12;70.60;91894.44;5046528;28;19961;-65
2023/11/05 10:41:42;;;;;;;;;;;;;;;4.23;73.16;91895.47;5046465;28;20604;-66
2023/11/05 10:44:07;;;;;;;;;;;;;;;4.25;71.24;91891.56;5040885;28;19953;-65
2023/11/05 10:46:33;;;;;;;;;;;;;;;4.27;70.37;91891.34;5045163;28;20210;-66
2023/11/05 10:48:58;;;;;;;;;;;;;;;4.30;70.89;91891.69;5044381;28;20401;-66
2023/11/05 10:51:23;;;;;;;;;;;;;;;4.38;70.97;91903.69;5043324;28;20498;-65
2023/11/05 10:53:48;;;;;;;;;;;;;;;4.16;71.00;91912.19;5038811;28;19947;-65
2023/11/05 10:56:29;;;;;;;;;;;;;;;3.79;71.74;91910.56;5041970;28;19933;-65
2023/11/05 10:58:55;;;;;;;;;;;;;;;4.33;71.27;91914.91;5043887;28;19987;-65
2023/11/05 11:01:21;;;;;;;;;;;;;;;4.57;68.94;91900.94;5029496;28;19983;-65
2023/11/05 11:03:47;;;;;;;;;;;;;;;4.86;69.22;91908.88;5049471;28;19929;-65
2023/11/05 11:06:12;;;;;;;;;;;;;;;5.06;67.81;91934.06;5052541;28;19917;-65
2023/11/05 11:08:38;;;;;;;;;;;;;;;4.62;69.27;91958.19;5048642;28;20417;-66
2023/11/05 11:11:07;;;;;;;;;;;;;;;4.62;69.50;91940.53;5040397;28;20684;-65
2023/11/05 11:13:33;;;;;;;;;;;;;;;4.27;71.20;91923.75;5042579;28;19928;-65
2023/11/05 11:16:03;;;;;;;;;;;;;;;4.55;69.19;91931.94;5040142;28;19916;-66
2023/11/05 11:18:30;;;;;;;;;;;;;;;4.63;68.84;91933.44;5044113;28;20576;-66
2023/11/05 11:20:56;;;;;;;;;;;;;;;4.52;69.55;91933.22;5043065;28;19928;-66
2023/11/05 11:23:21;;;;;;;;;;;;;;;5.05;68.41;91937.69;5043571;28;20686;-65
2023/11/05 11:25:55;;;;;;;;;;;;;;;5.01;69.00;91929.47;5044404;28;19984;-65
2023/11/05 11:28:21;;;;;;;;;;;;;;;4.83;69.18;91943.63;5048346;28;20000;-66
2023/11/05 11:30:47;;;;;;;;;;;;;;;4.75;69.83;91944.78;5043987;28;20004;-65
2023/11/05 11:33:12;;;;;;;;;;;;;;;4.75;69.71;91959.75;5045835;28;19958;-66
2023/11/05 11:35:37;;;;;;;;;;;;;;;4.64;69.70;91959.56;5045224;28;19969;-65
2023/11/05 11:38:04;;;;;;;;;;;;;;;4.18;71.91;91981.22;5049376;28;19975;-65
2023/11/05 11:40:29;;;;;;;;;;;;;;;3.94;73.88;91989.06;5045562;28;19960;-65
2023/11/05 11:42:55;;;;;;;;;;;;;;;3.37;77.41;91987.59;5042888;28;20470;-65
2023/11/05 11:45:20;;;;;;;;;;;;;;;3.47;77.98;92008.13;5041116;28;19981;-65
2023/11/05 11:47:45;;;;;;;;;;;;;;;3.37;76.98;91999.97;5041720;28;20117;-65
2023/11/05 11:50:10;;;;;;;;;;;;;;;2.82;76.28;92006.88;5042435;28;20463;-64
2023/11/05 11:52:45;;;;;;;;;;;;;;;3.00;76.06;92032.34;5040075;28;20420;-65
2023/11/05 11:55:10;;;;;;;;;;;;;;;3.10;76.57;92016.84;5042337;28;19986;-65
2023/11/05 11:57:36;;;;;;;;;;;;;;;3.16;73.86;92015.16;5043763;28;20543;-65
2023/11/05 12:00:01;;;;;;;;;;;;;;;3.21;74.11;92040.81;5042968;28;19951;-65
2023/11/05 12:02:26;;;;;;;;;;;;;;;3.87;73.01;92029.66;5045486;28;20396;-65
2023/11/05 12:04:51;;;;;;;;;;;;;;;5.94;67.81;92021.91;5046863;28;19932;-65
2023/11/05 12:07:17;;;;;;;;;;;;;;;6.53;64.65;92031.34;5040256;28;19932;-65
2023/11/05 12:09:42;;;;;;;;;;;;;;;6.19;65.14;92026.06;5045049;28;20451;-65
2023/11/05 12:12:08;;;;;;;;;;;;;;;6.09;64.37;92042.53;5044504;28;20530;-65
2023/11/05 12:14:33;;;;;;;;;;;;;;;5.70;65.42;92054.50;5042257;28;19936;-65
2023/11/05 12:16:58;;;;;;;;;;;;;;;5.90;64.85;92048.00;5043109;28;19935;-65
2023/11/05 12:19:24;;;;;;;;;;;;;;;5.55;66.14;92052.38;5042629;28;20380;-66
2023/11/05 12:21:53;;;;;;;;;;;;;;;5.35;65.07;92063.34;5043752;28;19924;-65
2023/11/05 12:24:18;;;;;;;;;;;;;;;5.67;65.30;92070.81;5042225;28;19917;-66
2023/11/05 12:26:44;;;;;;;;;;;;;;;5.89;64.63;92072.00;5037903;28;19925;-66
2023/11/05 12:29:09;;;;;;;;;;;;;;;6.13;62.86;92070.06;5044162;28;19924;-65
2023/11/05 12:31:35;;;;;;;;;;;;;;;5.89;64.04;92106.31;5038688;28;19925;-65
2023/11/05 12:34:00;;;;;;;;;;;;;;;5.35;65.11;92095.78;5044007;28;19921;-65
2023/11/05 12:36:26;;;;;;;;;;;;;;;5.85;63.97;92098.09;5043946;28;20569;-66
2023/11/05 12:38:51;;;;;;;;;;;;;;;5.42;65.51;92131.78;5045054;28;19973;-65
2023/11/05 12:41:16;;;;;;;;;;;;;;;5.30;65.77;92113.31;5045904;28;19931;-64
2023/11/05 12:43:42;;;;;;;;;;;;;;;5.63;64.80;92113.72;5039249;28;19929;-62
2023/11/05 12:46:07;;;;;;;;;;;;;;;6.02;63.96;92121.09;5045047;28;19925;-64
2023/11/05 12:48:33;;;;;;;;;;;;;;;6.03;63.36;92130.63;5039976;28;19917;-63